EST,Max TemperatureF,Mean TemperatureF,Min TemperatureF,Max Dew PointF,MeanDew PointF,Min DewpointF,Max Humidity, Mean Humidity, Min Humidity, Max Sea Level PressureIn, Mean Sea Level PressureIn, Min Sea Level PressureIn, Max VisibilityMiles, Mean VisibilityMiles, Min VisibilityMiles, Max Wind SpeedMPH, Mean Wind SpeedMPH, Max Gust SpeedMPH,PrecipitationIn, CloudCover, Events, WindDirDegrees
2014-2-1,35,30,26,36,30,27,100,97,93,30.08,29.93,29.78,7,2,1,9,4,,0.56,8,Rain-Snow,91
2014-2-2,26,20,15,25,19,10,93,81,69,30.28,30.16,30.00,10,10,7,15,7,18,0.00,6,,331
2014-2-3,24,12,0,14,7,-4,92,82,59,30.38,30.32,30.24,10,8,4,6,1,,0.00,0,,3
2014-2-4,23,13,3,18,9,0,93,81,59,30.41,30.29,30.04,10,7,1,15,3,22,0.02,3,Snow,74
2014-2-5,24,20,15,19,16,10,93,84,73,30.39,30.10,29.88,10,6,0,16,11,23,0.06,7,Snow,357
2014-2-6,17,6,-5,14,1,-9,93,78,61,30.41,30.38,30.35,10,8,2,15,6,21,0.00,3,Snow,244
2014-2-7,10,2,-7,0,-6,-13,84,72,57,30.40,30.37,30.34,10,10,7,16,7,21,0.00,1,Snow,239
2014-2-8,17,10,3,12,5,-4,93,78,62,30.35,30.24,30.13,10,6,0,5,2,,0.01,7,Snow,180
2014-2-9,19,12,5,14,10,1,93,82,63,30.24,30.13,30.07,10,6,1,15,4,17,0.05,5,Snow,278
2014-2-10,14,4,-7,5,-2,-13,92,79,62,30.42,30.32,30.23,10,7,0,10,4,,0.00,2,Snow,274
2014-2-11,15,0,-14,5,-6,-20,92,78,62,30.51,30.45,30.40,10,8,3,6,2,,0.00,3,Snow,288
2014-2-12,23,4,-14,12,-2,-18,92,71,43,30.42,30.23,30.04,10,9,7,8,1,,0.00,1,Snow,129
2014-2-13,32,15,-2,25,7,-6,92,67,47,30.04,29.81,29.50,10,9,4,12,3,20,0.00,3,,160
2014-2-14,32,24,17,27,15,12,86,79,68,29.85,29.69,29.49,10,8,3,30,13,37,0.00,7,Snow,283
2014-2-15,24,20,17,18,13,9,93,77,64,30.08,30.01,29.85,10,8,1,10,4,,0.00,5,Snow,279
2014-2-16,26,22,17,21,17,10,93,83,73,30.29,30.09,29.92,10,7,2,14,4,,0.00,8,Snow,294
2014-2-17,28,21,14,27,16,10,100,83,68,30.31,30.00,29.67,10,6,0,24,11,32,0.05,7,Snow,126
2014-2-18,42,34,26,30,26,21,93,71,57,30.03,29.86,29.69,10,8,3,29,13,34,0.01,4,,223
2014-2-19,42,36,30,32,30,27,93,81,61,30.05,29.87,29.64,10,10,7,16,8,24,0.00,2,,259
2014-2-20,51,42,32,50,35,28,100,93,76,30.02,29.66,29.37,10,5,0,26,9,41,1.14,6,Fog-Rain-Snow,131
2014-2-21,35,34,32,32,26,18,93,73,55,29.85,29.67,29.50,10,10,4,30,19,43,0.00,6,Snow,241
2014-2-22,37,32,26,30,24,12,93,73,51,30.04,29.96,29.81,10,10,5,15,8,21,0.00,5,Snow,245
2014-2-23,32,26,19,27,16,12,80,67,51,30.16,30.12,30.02,10,10,10,16,8,21,0.00,1,,287
2014-2-24,26,19,12,12,10,7,79,67,51,30.24,30.19,30.15,10,10,10,20,12,26,0.00,2,Snow,267
2014-2-25,24,19,12,14,12,7,86,72,63,30.19,30.14,30.07,10,10,2,18,10,24,0.00,5,Snow,273
2014-2-26,14,10,5,7,2,-4,85,67,48,30.17,30.02,29.70,10,10,7,23,13,28,0.00,2,Snow,260
2014-2-27,19,10,0,10,4,-4,92,71,57,30.19,29.93,29.61,10,8,1,29,16,36,0.00,5,Snow,300
2014-2-28,26,11,-4,12,1,-8,85,61,47,30.25,30.16,30.04,10,10,10,14,4,17,0.00,0,,136